createdAt,value
2023-03-05T00:00:30.812Z,97629.03
2023-03-05T00:04:32.146Z,97631.91
2023-03-05T00:08:33.580Z,97621.28
2023-03-05T00:12:36.301Z,97620.09
2023-03-05T00:16:37.660Z,97626.81
2023-03-05T00:20:39.007Z,97619.00
2023-03-05T00:24:40.400Z,97614.16
2023-03-05T00:28:43.089Z,97615.31
2023-03-05T00:32:44.419Z,97600.44
2023-03-05T00:36:46.656Z,97608.13
2023-03-05T00:40:50.051Z,97599.44
2023-03-05T00:44:52.735Z,97602.66
2023-03-05T00:48:54.238Z,97593.09
2023-03-05T00:52:55.679Z,97589.91
2023-03-05T00:56:57.030Z,97585.66
2023-03-05T01:01:00.154Z,97584.16
2023-03-05T01:05:01.623Z,97578.09
2023-03-05T01:09:03.349Z,97569.00
2023-03-05T01:13:04.771Z,97567.50
2023-03-05T01:17:07.595Z,97571.72
2023-03-05T01:21:09.442Z,97560.06
2023-03-05T01:25:12.246Z,97558.09
2023-03-05T01:29:13.596Z,97546.53
2023-03-05T01:33:16.401Z,97553.16
2023-03-05T01:37:17.847Z,97548.75
2023-03-05T01:41:19.805Z,97545.38
2023-03-05T01:45:21.318Z,97545.72
2023-03-05T01:49:25.207Z,97537.72
2023-03-05T01:53:26.597Z,97536.94
2023-03-05T01:57:30.763Z,97527.72
2023-03-05T02:01:33.823Z,97521.44
2023-03-05T02:05:37.840Z,97528.53
2023-03-05T02:09:40.042Z,97523.50
2023-03-05T02:13:41.431Z,97517.31
2023-03-05T02:17:42.972Z,97514.59
2023-03-05T02:21:46.778Z,97508.06
2023-03-05T02:25:48.518Z,97503.41
2023-03-05T02:29:50.456Z,97503.00
2023-03-05T02:33:52.250Z,97497.25
2023-03-05T02:37:54.973Z,97495.81
2023-03-05T02:41:56.488Z,97493.28
2023-03-05T02:45:58.052Z,97484.94
2023-03-05T02:49:59.589Z,97482.00
2023-03-05T02:54:02.306Z,97490.78
2023-03-05T02:58:03.673Z,97481.88
2023-03-05T03:02:05.007Z,97484.03
2023-03-05T03:06:06.871Z,97481.06
2023-03-05T03:10:10.742Z,97476.75
2023-03-05T03:14:12.087Z,97474.25
2023-03-05T03:18:13.426Z,97470.59
2023-03-05T03:22:15.257Z,97468.66
2023-03-05T03:26:18.384Z,97461.38
2023-03-05T03:30:19.847Z,97459.81
2023-03-05T03:34:21.577Z,97456.59
2023-03-05T03:38:22.922Z,97456.78
2023-03-05T03:42:25.640Z,97446.69
2023-03-05T03:46:27.027Z,97456.19
2023-03-05T03:50:28.383Z,97442.81
2023-03-05T03:54:29.738Z,97442.22
2023-03-05T03:58:32.450Z,97444.88
2023-03-05T04:02:33.979Z,97445.56
2023-03-05T04:06:35.417Z,97436.94
2023-03-05T04:10:36.752Z,97438.78
2023-03-05T04:19:23.216Z,97421.47
2023-03-05T04:23:24.781Z,97430.38
2023-03-05T04:27:26.106Z,97424.66
2023-03-05T04:31:27.539Z,97421.81
2023-03-05T04:35:30.307Z,97423.53
2023-03-05T04:39:31.670Z,97419.81
2023-03-05T04:43:33.006Z,97431.94
2023-03-05T04:47:34.429Z,97420.00
2023-03-05T04:51:37.089Z,97419.81
2023-03-05T04:55:38.410Z,97411.53
2023-03-05T04:59:39.824Z,97406.38
2023-03-05T05:03:41.164Z,97410.94
2023-03-05T05:07:43.847Z,97410.78
2023-03-05T05:11:45.166Z,97403.78
2023-03-05T05:15:46.477Z,97408.16
2023-03-05T05:19:47.806Z,97405.69
2023-03-05T05:23:50.483Z,97412.53
2023-03-05T05:27:51.830Z,97402.78
2023-03-05T05:31:53.194Z,97404.44
2023-03-05T05:35:54.581Z,97405.84
2023-03-05T05:39:57.362Z,97407.94
2023-03-05T05:43:58.683Z,97404.81
2023-03-05T05:48:00.119Z,97409.66
2023-03-05T05:52:01.442Z,97409.91
2023-03-05T05:56:05.648Z,97408.50
2023-03-05T06:00:10.465Z,97415.03
2023-03-05T06:04:11.788Z,97412.97
2023-03-05T06:08:13.257Z,97415.53
2023-03-05T06:12:15.942Z,97418.25
2023-03-05T06:16:18.266Z,97416.94
2023-03-05T06:20:19.936Z,97421.78
2023-03-05T06:24:21.249Z,97422.28
2023-03-05T06:28:23.965Z,97423.09
2023-03-05T06:32:25.356Z,97417.66
2023-03-05T06:36:27.012Z,97415.53
2023-03-05T06:40:28.319Z,97416.50
2023-03-05T06:44:31.157Z,97419.56
2023-03-05T06:48:32.672Z,97418.56
2023-03-05T06:52:34.019Z,97415.31
2023-03-05T06:56:36.516Z,97413.09
2023-03-05T07:00:39.180Z,97406.69
2023-03-05T07:04:40.525Z,97408.63
2023-03-05T07:08:42.263Z,97410.09
2023-03-05T07:12:43.700Z,97411.84
2023-03-05T07:16:46.426Z,97404.41
2023-03-05T07:20:47.778Z,97407.09
2023-03-05T07:24:49.120Z,97403.56
2023-03-05T07:28:50.463Z,97404.19
2023-03-05T07:32:53.136Z,97389.16
2023-03-05T07:36:54.518Z,97397.91
2023-03-05T07:40:55.840Z,97397.06
2023-03-05T07:44:57.366Z,97396.84
2023-03-05T07:49:00.173Z,97391.41
2023-03-05T07:53:01.520Z,97392.25
2023-03-05T07:57:03.012Z,97389.81
2023-03-05T08:01:11.675Z,97380.84
2023-03-05T08:05:15.954Z,97385.94
2023-03-05T08:09:17.636Z,97384.94
2023-03-05T08:13:19.000Z,97382.09
2023-03-05T08:17:20.375Z,97379.56
2023-03-05T08:21:26.672Z,97375.88
2023-03-05T08:25:28.126Z,97375.28
2023-03-05T08:29:29.467Z,97380.38
2023-03-05T08:33:31.653Z,97373.34
2023-03-05T08:37:35.616Z,97369.00
2023-03-05T08:41:37.081Z,97369.31
2023-03-05T08:45:39.060Z,97364.50
2023-03-05T08:49:40.412Z,97362.94
2023-03-05T08:53:43.602Z,97352.28
2023-03-05T08:57:44.947Z,97359.13
2023-03-05T09:01:46.321Z,97350.19
2023-03-05T09:05:47.831Z,97354.28
2023-03-05T09:09:50.543Z,97352.06
2023-03-05T09:13:51.886Z,97345.53
2023-03-05T09:17:53.226Z,97342.78
2023-03-05T09:21:56.860Z,97337.03
2023-03-05T09:25:59.776Z,97339.13
2023-03-05T09:30:01.202Z,97336.94
2023-03-05T09:34:02.590Z,97327.06
2023-03-05T09:38:04.087Z,97331.69
2023-03-05T09:42:17.435Z,97330.78
2023-03-05T09:46:26.132Z,97332.63
2023-03-05T09:50:32.740Z,97331.50
2023-03-05T09:54:38.094Z,97329.50
2023-03-05T09:58:42.308Z,97334.75
2023-03-05T10:02:48.165Z,97326.84
2023-03-05T10:06:53.030Z,97330.69
2023-03-05T10:10:54.829Z,97316.91
2023-03-05T10:14:58.122Z,97312.59
2023-03-05T10:19:03.843Z,97315.63
2023-03-05T10:23:15.197Z,97309.09
2023-03-05T10:27:19.423Z,97300.28
2023-03-05T10:31:29.756Z,97296.50
2023-03-05T10:35:39.756Z,97297.63
2023-03-05T10:39:46.657Z,97293.22
2023-03-05T10:43:52.308Z,97290.47
2023-03-05T10:47:57.391Z,97280.09
2023-03-05T10:52:03.980Z,97281.97
2023-03-05T10:56:05.909Z,97272.94
2023-03-05T11:00:11.839Z,97275.16
2023-03-05T11:04:27.188Z,97255.97
2023-03-05T11:08:31.921Z,97254.31
2023-03-05T11:12:34.107Z,97249.97
2023-03-05T11:16:46.316Z,97253.81
2023-03-05T11:20:49.017Z,97249.41
2023-03-05T11:25:03.268Z,97240.94
2023-03-05T11:29:15.906Z,97235.44
2023-03-05T11:33:19.528Z,97228.59
2023-03-05T11:37:26.661Z,97219.88
2023-03-05T11:41:32.792Z,97215.19
2023-03-05T11:45:34.741Z,97207.28
2023-03-05T11:49:41.027Z,97199.34
2023-03-05T11:53:45.907Z,97191.69
2023-03-05T11:57:50.623Z,97188.66
2023-03-05T12:01:54.307Z,97183.19
2023-03-05T12:05:57.236Z,97187.28
2023-03-05T12:10:00.460Z,97176.63
2023-03-05T12:14:05.192Z,97175.25
2023-03-05T12:18:13.537Z,97174.97
2023-03-05T12:22:19.794Z,97167.06
2023-03-05T12:26:36.047Z,97162.91
2023-03-05T12:30:56.014Z,97164.03
2023-03-05T12:34:58.780Z,97165.66
2023-03-05T12:39:00.276Z,97156.91
2023-03-05T12:43:02.137Z,97151.72
2023-03-05T12:47:16.432Z,97147.84
2023-03-05T12:51:35.756Z,97147.59
2023-03-05T12:55:38.003Z,97142.91
2023-03-05T12:59:42.080Z,97142.38
2023-03-05T13:03:45.464Z,97140.13
2023-03-05T13:07:48.286Z,97140.72
2023-03-05T13:11:51.690Z,97139.06
2023-03-05T13:15:53.320Z,97131.09
2023-03-05T13:19:54.808Z,97139.88
2023-03-05T13:23:58.253Z,97125.38
2023-03-05T13:28:02.499Z,97129.50
2023-03-05T13:32:17.714Z,97123.75
2023-03-05T13:36:19.696Z,97122.13
2023-03-05T13:40:23.978Z,97116.38
2023-03-05T13:44:25.365Z,97115.56
2023-03-05T13:48:27.391Z,97112.28
2023-03-05T13:52:29.473Z,97109.28
2023-03-05T13:56:32.193Z,97098.59
2023-03-05T14:00:34.490Z,97094.53
2023-03-05T14:04:36.789Z,97095.63
2023-03-05T14:08:38.317Z,97098.06
2023-03-05T14:12:42.928Z,97091.25
2023-03-05T14:16:44.339Z,97081.13
2023-03-05T14:20:59.642Z,97076.22
2023-03-05T14:25:01.221Z,97078.66
2023-03-05T14:29:04.752Z,97077.84
2023-03-05T14:33:06.226Z,97072.13
2023-03-05T14:37:17.341Z,97067.72
2023-03-05T14:41:19.703Z,97060.34
2023-03-05T14:45:23.870Z,97052.69
2023-03-05T14:49:25.225Z,97052.97
2023-03-05T14:53:27.916Z,97052.13
2023-03-05T14:57:31.253Z,97048.28
2023-03-05T15:01:33.977Z,97039.25
2023-03-05T15:05:36.818Z,97036.22
2023-03-05T15:09:38.170Z,97029.41
2023-03-05T15:13:39.577Z,97026.44
2023-03-05T15:17:42.979Z,97019.84
2023-03-05T15:21:44.334Z,97028.91
2023-03-05T15:25:45.752Z,97014.94
2023-03-05T15:29:47.160Z,97014.38
2023-03-05T15:33:49.917Z,97008.34
2023-03-05T15:37:51.669Z,96999.34
2023-03-05T15:41:53.424Z,97002.06
2023-03-05T15:45:54.873Z,97005.34
2023-03-05T15:49:57.634Z,97002.09
2023-03-05T15:53:59.022Z,96996.88
2023-03-05T15:58:00.356Z,96993.06
2023-03-05T16:02:01.778Z,96992.22
2023-03-05T16:06:05.187Z,96990.34
2023-03-05T16:10:07.241Z,96985.16
2023-03-05T16:14:09.590Z,96982.41
2023-03-05T16:18:12.487Z,96977.22
2023-03-05T16:22:15.241Z,96983.25
2023-03-05T16:26:16.793Z,96981.31
2023-03-05T16:30:18.500Z,96980.22
2023-03-05T16:34:20.019Z,96978.84
2023-03-05T16:38:22.725Z,96973.13
2023-03-05T16:42:24.095Z,96960.81
2023-03-05T16:46:26.286Z,96971.47
2023-03-05T16:50:27.654Z,96970.41
2023-03-05T16:54:30.703Z,96963.25
2023-03-05T16:58:33.115Z,96967.91
2023-03-05T17:02:34.924Z,96964.91
2023-03-05T17:06:36.341Z,96958.38
2023-03-05T17:10:39.087Z,96961.06
2023-03-05T17:14:40.429Z,96961.84
2023-03-05T17:18:41.753Z,96963.53
2023-03-05T17:22:43.086Z,96958.34
2023-03-05T17:26:45.780Z,96964.88
2023-03-05T17:30:47.299Z,96960.22
2023-03-05T17:34:52.244Z,96970.56
2023-03-05T17:38:53.778Z,96960.78
2023-03-05T17:42:56.511Z,96971.13
2023-03-05T17:46:57.827Z,96971.13
2023-03-05T17:50:59.359Z,96971.13
2023-03-05T17:55:00.669Z,96973.56
2023-03-05T17:59:03.389Z,96976.06
2023-03-05T18:03:05.050Z,96965.41
2023-03-05T18:07:06.457Z,96968.97
2023-03-05T18:11:07.835Z,96969.75
2023-03-05T18:15:12.387Z,96969.19
2023-03-05T18:19:13.761Z,96964.84
2023-03-05T18:23:15.594Z,96964.84
2023-03-05T18:27:16.983Z,96955.56
2023-03-05T18:31:19.741Z,96956.66
2023-03-05T18:35:21.148Z,96954.47
2023-03-05T18:39:22.553Z,96946.50
2023-03-05T18:43:24.668Z,96951.13
2023-03-05T18:47:27.437Z,96932.88
2023-03-05T18:51:29.050Z,96940.78
2023-03-05T18:55:30.437Z,96949.00
2023-03-05T18:59:31.821Z,96949.53
2023-03-05T19:03:34.945Z,96943.47
2023-03-05T19:07:36.407Z,96937.78
2023-03-05T19:11:37.795Z,96943.22
2023-03-05T19:15:39.199Z,96945.69
2023-03-05T19:19:42.021Z,96945.59
2023-03-05T19:23:43.444Z,96936.00
2023-03-05T19:27:44.819Z,96941.69
2023-03-05T19:31:46.177Z,96935.63
2023-03-05T19:35:48.980Z,96926.63
2023-03-05T19:39:50.431Z,96930.13
2023-03-05T19:43:51.854Z,96923.63
2023-03-05T19:47:53.320Z,96933.41
2023-03-05T19:51:56.081Z,96914.84
2023-03-05T19:55:57.444Z,96910.97
2023-03-05T19:59:58.819Z,96914.00
2023-03-05T20:04:01.372Z,96901.97
2023-03-05T20:08:04.106Z,96899.47
2023-03-05T20:12:05.697Z,96895.06
2023-03-05T20:16:12.783Z,96891.75
2023-03-05T20:20:14.378Z,96892.06
2023-03-05T20:24:18.548Z,96902.63
2023-03-05T20:28:19.893Z,96896.31
2023-03-05T20:32:21.332Z,96892.25
2023-03-05T20:36:22.732Z,96889.69
2023-03-05T20:40:25.497Z,96885.09
2023-03-05T20:44:26.851Z,96888.44
2023-03-05T20:48:29.059Z,96878.44
2023-03-05T20:52:30.476Z,96879.38
2023-03-05T20:56:34.044Z,96873.13
2023-03-05T21:00:35.899Z,96865.81
2023-03-05T21:04:37.631Z,96868.78
2023-03-05T21:08:39.012Z,96860.81
2023-03-05T21:12:41.778Z,96857.81
2023-03-05T21:16:43.245Z,96857.19
2023-03-05T21:20:45.312Z,96855.88
2023-03-05T21:24:46.650Z,96854.44
2023-03-05T21:28:49.392Z,96855.28
2023-03-05T21:32:50.731Z,96840.28
2023-03-05T21:36:52.056Z,96849.06
2023-03-05T21:40:53.502Z,96839.59
2023-03-05T21:44:56.220Z,96835.09
2023-03-05T21:48:57.563Z,96844.06
2023-03-05T21:52:59.066Z,96834.50
2023-03-05T21:57:00.394Z,96831.25
2023-03-05T22:01:03.365Z,96828.78
2023-03-05T22:05:05.134Z,96821.84
2023-03-05T22:09:06.475Z,96818.22
2023-03-05T22:13:08.831Z,96805.44
2023-03-05T22:17:11.530Z,96807.13
2023-03-05T22:21:16.890Z,96801.59
2023-03-05T22:25:18.498Z,96803.75
2023-03-05T22:29:19.843Z,96798.81
2023-03-05T22:33:23.256Z,96792.63
2023-03-05T22:37:24.737Z,96789.88
2023-03-05T22:41:26.253Z,96792.53
2023-03-05T22:45:28.355Z,96783.81
2023-03-05T22:49:32.171Z,96778.97
2023-03-05T22:53:33.591Z,96770.56
2023-03-05T22:57:34.941Z,96775.69
2023-03-05T23:01:36.306Z,96763.13
2023-03-05T23:05:39.440Z,96764.47
2023-03-05T23:09:40.826Z,96760.13
2023-03-05T23:13:42.243Z,96756.78
2023-03-05T23:17:43.916Z,96760.38
2023-03-05T23:21:46.652Z,96751.66
2023-03-05T23:25:49.912Z,96753.31
2023-03-05T23:29:52.510Z,96748.91
2023-03-05T23:33:53.892Z,96746.44
2023-03-05T23:37:57.272Z,96736.19
2023-03-05T23:41:58.657Z,96735.88
2023-03-05T23:46:00.096Z,96736.66
2023-03-05T23:50:01.634Z,96736.47
2023-03-05T23:54:04.560Z,96726.53
2023-03-05T23:58:06.426Z,96727.34
